Terminal Aerodrome Forecast
Issued by NWS Sterling, VA

Current Version | Previous Version | Graphics & Text | Print | Product List | Glossary On
Versions: 1 2 3 4 5 6 7 8 9 10 11 12 13 14 15 16
000
FTUS41 KLWX 290524
TAFMRB
TAF
KMRB 290524Z 2906/3006 00000KT P6SM SCT045
     FM291300 VRB03KT P6SM SCT250
     FM292200 18005KT P6SM SCT050
     FM300300 20004KT P6SM SCT250=

USA.gov is the U.S. government's official web portal to all federal, state and local government web resources and services.